createdAt,value
2023-03-28T00:00:03.982Z,1018.36
2023-03-28T00:01:04.002Z,1018.37
2023-03-28T00:02:04.020Z,1018.37
2023-03-28T00:03:04.132Z,1018.35
2023-03-28T00:04:04.094Z,1018.36
2023-03-28T00:05:04.075Z,1018.39
2023-03-28T00:06:04.178Z,1018.42
2023-03-28T00:07:04.110Z,1018.41
2023-03-28T00:08:04.126Z,1018.42
2023-03-28T00:09:04.147Z,1018.45
2023-03-28T00:10:04.170Z,1018.46
2023-03-28T00:11:04.205Z,1018.46
2023-03-28T00:12:04.196Z,1018.47
2023-03-28T00:13:04.234Z,1018.47
2023-03-28T00:14:04.249Z,1018.43
2023-03-28T00:15:04.286Z,1018.50
2023-03-28T00:16:04.298Z,1018.45
2023-03-28T00:17:04.285Z,1018.51
2023-03-28T00:18:04.301Z,1018.49
2023-03-28T00:19:04.348Z,1018.49
2023-03-28T00:20:04.335Z,1018.50
2023-03-28T00:21:04.367Z,1018.48
2023-03-28T00:22:04.372Z,1018.50
2023-03-28T00:23:04.399Z,1018.52
2023-03-28T00:24:04.427Z,1018.53
2023-03-28T00:25:04.422Z,1018.53
2023-03-28T00:26:04.443Z,1018.52
2023-03-28T00:27:04.458Z,1018.53
2023-03-28T00:28:04.472Z,1018.57
2023-03-28T00:29:04.490Z,1018.55
2023-03-28T00:30:04.510Z,1018.55
2023-03-28T00:31:04.577Z,1018.54
2023-03-28T00:32:04.543Z,1018.58
2023-03-28T00:33:04.589Z,1018.55
2023-03-28T00:34:04.577Z,1018.56
2023-03-28T00:35:04.602Z,1018.58
2023-03-28T00:36:04.621Z,1018.60
2023-03-28T00:37:04.680Z,1018.63
2023-03-28T00:38:04.668Z,1018.63
2023-03-28T00:39:04.664Z,1018.68
2023-03-28T00:40:04.681Z,1018.60
2023-03-28T00:41:04.699Z,1018.61
2023-03-28T00:42:04.713Z,1018.68
2023-03-28T00:43:04.756Z,1018.69
2023-03-28T00:44:04.751Z,1018.66
2023-03-28T00:45:04.770Z,1018.70
2023-03-28T00:46:09.443Z,1018.70
2023-03-28T00:47:04.860Z,1018.69
2023-03-28T00:48:04.893Z,1018.72
2023-03-28T00:49:04.853Z,1018.71
2023-03-28T00:50:04.852Z,1018.67
2023-03-28T00:51:04.870Z,1018.68
2023-03-28T00:52:04.889Z,1018.67
2023-03-28T00:53:04.914Z,1018.69
2023-03-28T00:54:04.925Z,1018.72
2023-03-28T00:55:04.941Z,1018.73
2023-03-28T00:56:04.960Z,1018.74
2023-03-28T00:57:05.031Z,1018.76
2023-03-28T00:58:05.000Z,1018.75
2023-03-28T00:59:05.015Z,1018.74
2023-03-28T01:00:05.041Z,1018.75
2023-03-28T01:01:05.046Z,1018.77
2023-03-28T01:02:05.181Z,1018.81
2023-03-28T01:03:05.110Z,1018.74
2023-03-28T01:04:05.098Z,1018.79
2023-03-28T01:05:05.121Z,1018.75
2023-03-28T01:06:05.133Z,1018.75
2023-03-28T01:07:05.145Z,1018.74
2023-03-28T01:08:05.169Z,1018.73
2023-03-28T01:09:05.180Z,1018.74
2023-03-28T01:10:05.202Z,1018.70
2023-03-28T01:11:05.215Z,1018.74
2023-03-28T01:12:05.234Z,1018.73
2023-03-28T01:13:05.249Z,1018.74
2023-03-28T01:14:05.265Z,1018.71
2023-03-28T01:15:05.297Z,1018.75
2023-03-28T01:16:05.347Z,1018.75
2023-03-28T01:17:05.331Z,1018.73
2023-03-28T01:18:05.341Z,1018.77
2023-03-28T01:19:05.353Z,1018.72
2023-03-28T01:20:05.368Z,1018.77
2023-03-28T01:21:05.384Z,1018.80
2023-03-28T01:22:05.401Z,1018.82
2023-03-28T01:23:05.420Z,1018.80
2023-03-28T01:24:11.773Z,1018.77
2023-03-28T01:25:05.452Z,1018.74
2023-03-28T01:26:05.469Z,1018.77
2023-03-28T01:27:05.492Z,1018.75
2023-03-28T01:28:05.503Z,1018.78
2023-03-28T01:29:05.528Z,1018.81
2023-03-28T01:30:05.537Z,1018.83
2023-03-28T01:31:05.589Z,1018.80
2023-03-28T01:32:05.576Z,1018.80
2023-03-28T01:33:05.607Z,1018.80
2023-03-28T01:34:05.606Z,1018.83
2023-03-28T01:35:05.626Z,1018.82
2023-03-28T01:36:05.651Z,1018.78
2023-03-28T01:37:05.668Z,1018.80
2023-03-28T01:38:05.672Z,1018.81
2023-03-28T01:39:05.692Z,1018.84
2023-03-28T01:40:05.734Z,1018.85
2023-03-28T01:41:05.753Z,1018.84
2023-03-28T01:42:05.752Z,1018.84
2023-03-28T01:43:05.768Z,1018.86
2023-03-28T01:44:05.775Z,1018.84
2023-03-28T01:45:05.803Z,1018.89
2023-03-28T01:46:05.853Z,1018.88
2023-03-28T01:47:05.826Z,1018.87
2023-03-28T01:48:05.920Z,1018.85
2023-03-28T01:49:05.861Z,1018.87
2023-03-28T01:50:05.898Z,1018.88
2023-03-28T01:51:05.892Z,1018.88
2023-03-28T01:52:05.910Z,1018.82
2023-03-28T01:53:05.931Z,1018.85
2023-03-28T01:54:05.959Z,1018.83
2023-03-28T01:55:05.961Z,1018.83
2023-03-28T01:56:05.976Z,1018.83
2023-03-28T01:57:06.105Z,1018.87
2023-03-28T01:58:06.012Z,1018.85
2023-03-28T01:59:06.046Z,1018.82
2023-03-28T02:00:06.045Z,1018.84
2023-03-28T02:01:06.070Z,1018.80
2023-03-28T02:02:06.124Z,1018.78
2023-03-28T02:03:06.521Z,1018.81
2023-03-28T02:04:06.109Z,1018.79
2023-03-28T02:05:06.127Z,1018.80
2023-03-28T02:06:06.151Z,1018.82
2023-03-28T02:07:06.162Z,1018.82
2023-03-28T02:08:06.183Z,1018.74
2023-03-28T02:09:06.197Z,1018.76
2023-03-28T02:10:06.213Z,1018.78
2023-03-28T02:11:06.242Z,1018.79
2023-03-28T02:12:06.250Z,1018.81
2023-03-28T02:13:06.272Z,1018.84
2023-03-28T02:14:06.284Z,1018.85
2023-03-28T02:15:06.325Z,1018.86
2023-03-28T02:16:06.377Z,1018.84
2023-03-28T02:17:06.333Z,1018.85
2023-03-28T02:18:06.360Z,1018.82
2023-03-28T02:19:06.376Z,1018.84
2023-03-28T02:20:06.385Z,1018.86
2023-03-28T02:21:06.410Z,1018.85
2023-03-28T02:22:06.442Z,1018.86
2023-03-28T02:23:06.435Z,1018.90
2023-03-28T02:24:06.456Z,1018.87
2023-03-28T02:25:06.473Z,1018.89
2023-03-28T02:26:06.486Z,1018.91
2023-03-28T02:27:06.501Z,1018.89
2023-03-28T02:28:06.534Z,1018.87
2023-03-28T02:29:06.536Z,1018.88
2023-03-28T02:30:06.556Z,1018.84
2023-03-28T02:31:06.569Z,1018.86
2023-03-28T02:32:06.843Z,1018.85
2023-03-28T02:33:06.643Z,1018.85
2023-03-28T02:34:06.629Z,1018.84
2023-03-28T02:35:06.642Z,1018.90
2023-03-28T02:36:06.683Z,1018.86
2023-03-28T02:37:06.689Z,1018.85
2023-03-28T02:38:06.701Z,1018.84
2023-03-28T02:39:06.708Z,1018.85
2023-03-28T02:40:06.722Z,1018.84
2023-03-28T02:41:06.734Z,1018.86
2023-03-28T02:42:06.756Z,1018.83
2023-03-28T02:43:06.780Z,1018.87
2023-03-28T02:44:06.791Z,1018.85
2023-03-28T02:45:06.804Z,1018.86
2023-03-28T02:46:06.847Z,1018.86
2023-03-28T02:47:06.840Z,1018.85
2023-03-28T02:48:06.858Z,1018.88
2023-03-28T02:49:06.873Z,1018.86
2023-03-28T02:50:06.899Z,1018.82
2023-03-28T02:51:06.903Z,1018.81
2023-03-28T02:52:06.920Z,1018.85
2023-03-28T02:53:06.945Z,1018.80
2023-03-28T02:54:07.030Z,1018.79
2023-03-28T02:55:06.974Z,1018.81
2023-03-28T02:56:06.983Z,1018.81
2023-03-28T02:57:07.062Z,1018.81
2023-03-28T02:58:07.018Z,1018.81
2023-03-28T02:59:07.034Z,1018.80
2023-03-28T03:00:07.053Z,1018.84
2023-03-28T03:01:07.093Z,1018.83
2023-03-28T03:02:07.082Z,1018.79
2023-03-28T03:03:07.172Z,1018.81
2023-03-28T03:04:07.137Z,1018.80
2023-03-28T03:05:07.130Z,1018.81
2023-03-28T03:06:07.148Z,1018.79
2023-03-28T03:07:07.175Z,1018.79
2023-03-28T03:08:07.182Z,1018.80
2023-03-28T03:09:07.205Z,1018.80
2023-03-28T03:10:07.221Z,1018.79
2023-03-28T03:11:07.230Z,1018.80
2023-03-28T03:12:07.246Z,1018.82
2023-03-28T03:13:07.264Z,1018.84
2023-03-28T03:14:07.279Z,1018.85
2023-03-28T03:15:07.320Z,1018.79
2023-03-28T03:16:07.340Z,1018.77
2023-03-28T03:17:07.328Z,1018.79
2023-03-28T03:18:07.361Z,1018.85
2023-03-28T03:19:07.359Z,1018.82
2023-03-28T03:20:07.449Z,1018.81
2023-03-28T03:21:07.394Z,1018.81
2023-03-28T03:22:07.429Z,1018.79
2023-03-28T03:23:07.448Z,1018.83
2023-03-28T03:24:07.452Z,1018.80
2023-03-28T03:25:07.461Z,1018.83
2023-03-28T03:26:07.489Z,1018.77
2023-03-28T03:27:07.487Z,1018.83
2023-03-28T03:28:07.502Z,1018.79
2023-03-28T03:29:07.517Z,1018.79
2023-03-28T03:30:07.545Z,1018.79
2023-03-28T03:31:07.590Z,1018.78
2023-03-28T03:32:07.569Z,1018.80
2023-03-28T03:33:07.583Z,1018.76
2023-03-28T03:34:07.613Z,1018.79
2023-03-28T03:35:07.613Z,1018.78
2023-03-28T03:36:07.651Z,1018.76
2023-03-28T03:37:07.646Z,1018.80
2023-03-28T03:38:07.667Z,1018.78
2023-03-28T03:39:07.690Z,1018.78
2023-03-28T03:40:07.702Z,1018.79
2023-03-28T03:41:07.718Z,1018.79
2023-03-28T03:42:07.740Z,1018.81
2023-03-28T03:43:07.749Z,1018.80
2023-03-28T03:44:07.764Z,1018.80
2023-03-28T03:45:07.806Z,1018.86
2023-03-28T03:46:07.828Z,1018.83
2023-03-28T03:47:07.815Z,1018.84
2023-03-28T03:48:07.982Z,1018.82
2023-03-28T03:49:07.841Z,1018.86
2023-03-28T03:50:07.858Z,1018.88
2023-03-28T03:51:07.878Z,1018.85
2023-03-28T03:52:07.891Z,1018.84
2023-03-28T03:53:07.910Z,1018.87
2023-03-28T03:54:07.920Z,1018.83
2023-03-28T03:55:07.952Z,1018.85
2023-03-28T03:56:07.953Z,1018.83
2023-03-28T03:57:07.976Z,1018.86
2023-03-28T03:58:08.001Z,1018.83
2023-03-28T03:59:08.004Z,1018.88
2023-03-28T04:00:08.014Z,1018.89
2023-03-28T04:01:08.029Z,1018.92
2023-03-28T04:02:08.076Z,1018.90
2023-03-28T04:03:08.146Z,1018.93
2023-03-28T04:04:08.128Z,1018.90
2023-03-28T04:05:08.098Z,1018.95
2023-03-28T04:06:08.108Z,1018.96
2023-03-28T04:07:08.125Z,1018.98
2023-03-28T04:08:08.141Z,1018.98
2023-03-28T04:09:08.159Z,1019.01
2023-03-28T04:10:08.175Z,1018.99
2023-03-28T04:11:08.189Z,1018.98
2023-03-28T04:12:08.211Z,1019.03
2023-03-28T04:13:08.225Z,1019.05
2023-03-28T04:14:08.236Z,1019.08
2023-03-28T04:15:08.253Z,1019.07
2023-03-28T04:16:08.301Z,1019.09
2023-03-28T04:17:08.289Z,1019.04
2023-03-28T04:18:09.615Z,1019.08
2023-03-28T04:19:08.326Z,1019.05
2023-03-28T04:20:08.352Z,1019.08
2023-03-28T04:21:08.344Z,1019.11
2023-03-28T04:22:08.368Z,1019.09
2023-03-28T04:23:08.512Z,1019.14
2023-03-28T04:24:08.404Z,1019.12
2023-03-28T04:25:08.410Z,1019.14
2023-03-28T04:26:08.427Z,1019.12
2023-03-28T04:27:08.443Z,1019.13
2023-03-28T04:28:08.462Z,1019.16
2023-03-28T04:29:08.480Z,1019.18
2023-03-28T04:30:08.497Z,1019.16
2023-03-28T04:31:08.632Z,1019.17
2023-03-28T04:32:08.531Z,1019.16
2023-03-28T04:33:08.566Z,1019.16
2023-03-28T04:34:08.561Z,1019.16
2023-03-28T04:35:08.580Z,1019.16
2023-03-28T04:36:08.645Z,1019.16
2023-03-28T04:37:08.599Z,1019.16
2023-03-28T04:38:08.625Z,1019.19
2023-03-28T04:39:08.642Z,1019.18
2023-03-28T04:40:08.667Z,1019.19
2023-03-28T04:41:08.672Z,1019.17
2023-03-28T04:42:08.767Z,1019.17
2023-03-28T04:43:08.707Z,1019.19
2023-03-28T04:44:08.717Z,1019.23
2023-03-28T04:45:08.776Z,1019.23
2023-03-28T04:46:08.768Z,1019.24
2023-03-28T04:47:08.783Z,1019.27
2023-03-28T04:48:08.828Z,1019.27
2023-03-28T04:49:08.802Z,1019.25
2023-03-28T04:50:08.811Z,1019.28
2023-03-28T04:51:08.825Z,1019.32
2023-03-28T04:52:08.854Z,1019.32
2023-03-28T04:53:08.966Z,1019.32
2023-03-28T04:54:08.878Z,1019.33
2023-03-28T04:55:08.891Z,1019.35
2023-03-28T04:56:08.942Z,1019.36
2023-03-28T04:57:09.014Z,1019.41
2023-03-28T04:58:08.942Z,1019.45
2023-03-28T04:59:08.972Z,1019.42
2023-03-28T05:00:08.976Z,1019.47
2023-03-28T05:01:09.018Z,1019.46
2023-03-28T05:02:09.018Z,1019.46
2023-03-28T05:03:10.863Z,1019.50
2023-03-28T05:04:09.031Z,1019.48
2023-03-28T05:05:09.047Z,1019.51
2023-03-28T05:06:09.062Z,1019.49
2023-03-28T05:07:09.076Z,1019.52
2023-03-28T05:08:09.094Z,1019.55
2023-03-28T05:09:09.120Z,1019.56
2023-03-28T05:10:09.128Z,1019.56
2023-03-28T05:11:09.141Z,1019.59
2023-03-28T05:12:09.160Z,1019.58
2023-03-28T05:13:09.178Z,1019.60
2023-03-28T05:14:09.192Z,1019.56
2023-03-28T05:15:09.203Z,1019.58
2023-03-28T05:16:09.293Z,1019.58
2023-03-28T05:17:09.232Z,1019.57
2023-03-28T05:18:09.271Z,1019.63
2023-03-28T05:19:09.266Z,1019.63
2023-03-28T05:20:09.293Z,1019.63
2023-03-28T05:21:09.296Z,1019.69
2023-03-28T05:22:09.313Z,1019.70
2023-03-28T05:23:09.327Z,1019.72
2023-03-28T05:24:09.344Z,1019.72
2023-03-28T05:25:09.357Z,1019.72
2023-03-28T05:26:09.385Z,1019.73
2023-03-28T05:27:09.385Z,1019.77
2023-03-28T05:28:09.408Z,1019.77
2023-03-28T05:29:09.421Z,1019.77
2023-03-28T05:30:09.442Z,1019.77
2023-03-28T05:31:09.455Z,1019.76
2023-03-28T05:32:09.562Z,1019.76
2023-03-28T05:33:09.505Z,1019.76
2023-03-28T05:34:09.508Z,1019.77
2023-03-28T05:35:09.517Z,1019.80
2023-03-28T05:36:09.570Z,1019.83
2023-03-28T05:37:09.551Z,1019.84
2023-03-28T05:38:09.567Z,1019.85
2023-03-28T05:39:09.579Z,1019.91
2023-03-28T05:40:09.610Z,1019.95
2023-03-28T05:41:09.614Z,1019.95
2023-03-28T05:42:09.642Z,1019.96
2023-03-28T05:43:09.646Z,1019.93
2023-03-28T05:44:09.665Z,1019.98
2023-03-28T05:45:09.675Z,1019.94
2023-03-28T05:46:09.752Z,1019.94
2023-03-28T05:47:09.712Z,1019.96
2023-03-28T05:48:09.763Z,1019.98
2023-03-28T05:49:09.743Z,1019.99
2023-03-28T05:50:09.760Z,1020.01
2023-03-28T05:51:09.774Z,1019.98
2023-03-28T05:52:09.794Z,1020.00
2023-03-28T05:53:09.807Z,1019.99
2023-03-28T05:54:09.821Z,1020.00
2023-03-28T05:55:09.838Z,1020.02
2023-03-28T05:56:09.857Z,1019.97
2023-03-28T05:57:09.890Z,1020.00
2023-03-28T05:58:09.886Z,1020.05
2023-03-28T05:59:09.904Z,1020.04
2023-03-28T06:00:09.918Z,1020.06
2023-03-28T06:01:09.951Z,1020.06
2023-03-28T06:02:09.951Z,1020.06
2023-03-28T06:03:16.276Z,1020.03
2023-03-28T06:04:10.022Z,1020.02
2023-03-28T06:05:10.035Z,1020.02
2023-03-28T06:06:10.022Z,1020.08
2023-03-28T06:07:10.031Z,1020.05
2023-03-28T06:08:10.059Z,1020.07
2023-03-28T06:09:10.062Z,1020.07
2023-03-28T06:10:10.081Z,1020.09
2023-03-28T06:11:10.097Z,1020.08
2023-03-28T06:12:10.119Z,1020.06
2023-03-28T06:13:10.134Z,1020.07
2023-03-28T06:14:10.149Z,1020.07
2023-03-28T06:15:10.162Z,1020.10
2023-03-28T06:16:10.175Z,1020.11
2023-03-28T06:17:10.210Z,1020.14
2023-03-28T06:18:10.272Z,1020.15
2023-03-28T06:19:17.710Z,1020.15
2023-03-28T06:20:10.300Z,1020.15
2023-03-28T06:21:10.267Z,1020.18
2023-03-28T06:22:10.280Z,1020.20
2023-03-28T06:23:10.298Z,1020.20
2023-03-28T06:24:10.318Z,1020.22
2023-03-28T06:25:10.339Z,1020.16
2023-03-28T06:26:10.347Z,1020.17
2023-03-28T06:27:10.369Z,1020.20
2023-03-28T06:28:10.384Z,1020.17
2023-03-28T06:29:10.412Z,1020.20
2023-03-28T06:30:10.427Z,1020.18
2023-03-28T06:31:10.483Z,1020.19
2023-03-28T06:32:10.465Z,1020.19
2023-03-28T06:33:10.478Z,1020.18
2023-03-28T06:34:10.494Z,1020.16
2023-03-28T06:35:10.520Z,1020.18
2023-03-28T06:36:10.562Z,1020.17
2023-03-28T06:37:10.561Z,1020.20
2023-03-28T06:38:10.626Z,1020.21
2023-03-28T06:39:10.589Z,1020.21
2023-03-28T06:40:10.616Z,1020.26
2023-03-28T06:41:10.623Z,1020.28
2023-03-28T06:42:10.652Z,1020.26
2023-03-28T06:43:10.666Z,1020.23
2023-03-28T06:44:10.682Z,1020.29
2023-03-28T06:45:10.705Z,1020.26
2023-03-28T06:46:10.742Z,1020.29
2023-03-28T06:47:10.742Z,1020.33
2023-03-28T06:48:10.819Z,1020.30
2023-03-28T06:49:10.777Z,1020.28
2023-03-28T06:50:10.802Z,1020.28
2023-03-28T06:51:10.820Z,1020.32
2023-03-28T06:52:10.838Z,1020.32
2023-03-28T06:53:10.856Z,1020.34
2023-03-28T06:54:10.883Z,1020.35
2023-03-28T06:55:10.898Z,1020.33
2023-03-28T06:56:10.909Z,1020.35
2023-03-28T06:57:10.954Z,1020.37
2023-03-28T06:58:10.953Z,1020.38
2023-03-28T06:59:10.977Z,1020.37
2023-03-28T07:00:10.990Z,1020.35
2023-03-28T07:01:11.021Z,1020.34
2023-03-28T07:02:11.032Z,1020.37
2023-03-28T07:03:11.060Z,1020.45
2023-03-28T07:04:11.069Z,1020.48
2023-03-28T07:05:11.082Z,1020.49
2023-03-28T07:06:11.120Z,1020.47
2023-03-28T07:07:11.123Z,1020.47
2023-03-28T07:08:11.151Z,1020.48
2023-03-28T07:09:11.165Z,1020.45
2023-03-28T07:10:11.195Z,1020.50
2023-03-28T07:11:11.202Z,1020.47
2023-03-28T07:12:11.215Z,1020.48
2023-03-28T07:13:11.236Z,1020.45
2023-03-28T07:14:11.251Z,1020.48
2023-03-28T07:15:11.275Z,1020.51
2023-03-28T07:16:11.303Z,1020.45
2023-03-28T07:17:11.309Z,1020.48
2023-03-28T07:18:11.329Z,1020.47
2023-03-28T07:19:11.379Z,1020.46
2023-03-28T07:20:11.370Z,1020.48
2023-03-28T07:21:11.393Z,1020.51
2023-03-28T07:22:11.403Z,1020.53
2023-03-28T07:23:11.422Z,1020.53
2023-03-28T07:24:11.443Z,1020.48
2023-03-28T07:25:11.461Z,1020.51
2023-03-28T07:26:11.491Z,1020.52
2023-03-28T07:27:15.482Z,1020.52
2023-03-28T07:28:11.513Z,1020.55
2023-03-28T07:29:11.538Z,1020.53
2023-03-28T07:30:11.559Z,1020.58
2023-03-28T07:31:11.613Z,1020.60
2023-03-28T07:32:11.596Z,1020.59
2023-03-28T07:33:17.141Z,1020.57
2023-03-28T07:34:11.643Z,1020.62
2023-03-28T07:35:11.656Z,1020.58
2023-03-28T07:36:11.720Z,1020.60
2023-03-28T07:37:11.682Z,1020.60
2023-03-28T07:38:11.701Z,1020.62
2023-03-28T07:39:11.718Z,1020.64
2023-03-28T07:40:11.759Z,1020.63
2023-03-28T07:41:11.757Z,1020.66
2023-03-28T07:42:11.782Z,1020.67
2023-03-28T07:43:11.796Z,1020.65
2023-03-28T07:44:11.815Z,1020.67
2023-03-28T07:45:11.842Z,1020.66
2023-03-28T07:46:11.851Z,1020.73
2023-03-28T07:47:11.869Z,1020.68
2023-03-28T07:48:11.951Z,1020.71
2023-03-28T07:49:11.903Z,1020.70
2023-03-28T07:50:11.923Z,1020.74
2023-03-28T07:51:11.949Z,1020.75
2023-03-28T07:52:11.966Z,1020.75
2023-03-28T07:53:11.983Z,1020.78
2023-03-28T07:54:11.999Z,1020.77
2023-03-28T07:55:12.017Z,1020.79
2023-03-28T07:56:12.261Z,1020.77
2023-03-28T07:57:12.095Z,1020.77
2023-03-28T07:58:12.090Z,1020.79
2023-03-28T07:59:12.095Z,1020.78
2023-03-28T08:00:12.105Z,1020.74
2023-03-28T08:01:12.188Z,1020.77
2023-03-28T08:02:12.158Z,1020.78
2023-03-28T08:03:12.233Z,1020.76
2023-03-28T08:04:12.242Z,1020.77
2023-03-28T08:05:12.235Z,1020.75
2023-03-28T08:06:28.743Z,1020.75
2023-03-28T08:07:12.248Z,1020.77
2023-03-28T08:08:12.264Z,1020.76
2023-03-28T08:09:12.281Z,1020.75
2023-03-28T08:10:12.305Z,1020.74
2023-03-28T08:11:12.325Z,1020.75
2023-03-28T08:12:12.337Z,1020.77
2023-03-28T08:13:12.358Z,1020.75
2023-03-28T08:14:12.405Z,1020.79
2023-03-28T08:15:12.397Z,1020.77
2023-03-28T08:16:12.483Z,1020.78
2023-03-28T08:17:12.444Z,1020.79
2023-03-28T08:18:12.457Z,1020.80
2023-03-28T08:19:13.295Z,1020.80
2023-03-28T08:20:12.499Z,1020.81
2023-03-28T08:21:12.506Z,1020.81
2023-03-28T08:22:12.559Z,1020.81
2023-03-28T08:23:12.547Z,1020.82
2023-03-28T08:24:19.647Z,1020.82
2023-03-28T08:25:12.592Z,1020.78
2023-03-28T08:26:12.607Z,1020.80
2023-03-28T08:27:12.639Z,1020.76
2023-03-28T08:28:12.641Z,1020.80
2023-03-28T08:29:12.667Z,1020.77
2023-03-28T08:30:12.703Z,1020.77
2023-03-28T08:31:12.736Z,1020.76
2023-03-28T08:32:12.721Z,1020.76
2023-03-28T08:33:12.802Z,1020.75
2023-03-28T08:34:12.756Z,1020.77
2023-03-28T08:35:12.781Z,1020.76
2023-03-28T08:36:12.832Z,1020.78
2023-03-28T08:37:12.819Z,1020.76
2023-03-28T08:38:12.835Z,1020.76
2023-03-28T08:39:12.859Z,1020.72
2023-03-28T08:40:12.871Z,1020.73
2023-03-28T08:41:12.889Z,1020.80
2023-03-28T08:42:12.913Z,1020.78
2023-03-28T08:43:12.941Z,1020.73
2023-03-28T08:44:12.950Z,1020.76
2023-03-28T08:45:12.978Z,1020.76
2023-03-28T08:46:13.009Z,1020.73
2023-03-28T08:47:13.010Z,1020.75
2023-03-28T08:48:13.065Z,1020.78
2023-03-28T08:49:13.051Z,1020.75
2023-03-28T08:50:13.530Z,1020.70
2023-03-28T08:51:13.091Z,1020.69
2023-03-28T08:52:13.124Z,1020.68
2023-03-28T08:53:13.133Z,1020.66
2023-03-28T08:54:13.153Z,1020.65
2023-03-28T08:55:13.167Z,1020.65
2023-03-28T08:56:13.188Z,1020.69
2023-03-28T08:57:13.262Z,1020.69
2023-03-28T08:58:13.226Z,1020.66
2023-03-28T08:59:13.253Z,1020.62
2023-03-28T09:00:13.279Z,1020.68
2023-03-28T09:01:13.295Z,1020.64
2023-03-28T09:02:13.326Z,1020.65
2023-03-28T09:03:13.408Z,1020.63
2023-03-28T09:04:13.442Z,1020.64
2023-03-28T09:05:23.140Z,1020.65
2023-03-28T09:06:13.389Z,1020.65
2023-03-28T09:07:13.410Z,1020.62
2023-03-28T09:08:13.426Z,1020.64
2023-03-28T09:09:13.455Z,1020.64
2023-03-28T09:10:13.475Z,1020.66
2023-03-28T09:11:13.497Z,1020.68
2023-03-28T09:12:13.511Z,1020.65
2023-03-28T09:13:13.533Z,1020.69
2023-03-28T09:14:13.570Z,1020.68
2023-03-28T09:15:13.572Z,1020.66
2023-03-28T09:16:13.640Z,1020.66
2023-03-28T09:17:13.613Z,1020.69
2023-03-28T09:18:13.858Z,1020.67
2023-03-28T09:19:13.665Z,1020.64
2023-03-28T09:20:13.696Z,1020.63
2023-03-28T09:21:13.702Z,1020.61
2023-03-28T09:22:15.873Z,1020.65
2023-03-28T09:23:13.741Z,1020.61
2023-03-28T09:24:13.763Z,1020.67
2023-03-28T09:25:13.779Z,1020.64
2023-03-28T09:26:13.805Z,1020.68
2023-03-28T09:27:13.822Z,1020.65
2023-03-28T09:28:13.841Z,1020.69
2023-03-28T09:29:13.864Z,1020.71
2023-03-28T09:30:13.886Z,1020.67
2023-03-28T09:31:13.950Z,1020.67
2023-03-28T09:32:14.011Z,1020.65
2023-03-28T09:33:13.953Z,1020.61
2023-03-28T09:34:13.974Z,1020.62
2023-03-28T09:35:13.999Z,1020.62
2023-03-28T09:36:14.037Z,1020.62
2023-03-28T09:37:14.037Z,1020.63
2023-03-28T09:38:14.062Z,1020.64
2023-03-28T09:39:14.093Z,1020.64
2023-03-28T09:40:14.108Z,1020.66
2023-03-28T09:41:14.129Z,1020.67
2023-03-28T09:42:14.146Z,1020.60
2023-03-28T09:43:14.173Z,1020.67
2023-03-28T09:44:14.200Z,1020.68
2023-03-28T09:45:14.213Z,1020.66
2023-03-28T09:46:14.259Z,1020.67
2023-03-28T09:47:14.257Z,1020.68
2023-03-28T09:48:14.386Z,1020.65
2023-03-28T09:49:14.300Z,1020.66
2023-03-28T09:50:14.372Z,1020.66
2023-03-28T09:51:14.355Z,1020.61
2023-03-28T09:52:14.368Z,1020.70
2023-03-28T09:53:14.390Z,1020.71
2023-03-28T09:54:14.411Z,1020.69
2023-03-28T09:55:14.443Z,1020.68
2023-03-28T09:56:14.471Z,1020.71
2023-03-28T09:57:14.529Z,1020.68
2023-03-28T09:58:14.505Z,1020.64
2023-03-28T09:59:14.533Z,1020.63
2023-03-28T10:00:14.552Z,1020.62
2023-03-28T10:01:14.602Z,1020.61
2023-03-28T10:02:14.685Z,1020.61
2023-03-28T10:03:14.613Z,1020.60
2023-03-28T10:04:14.693Z,1020.65
2023-03-28T10:05:14.656Z,1020.64
2023-03-28T10:06:14.682Z,1020.61
2023-03-28T10:07:14.706Z,1020.64
2023-03-28T10:08:14.724Z,1020.64
2023-03-28T10:09:14.757Z,1020.66
2023-03-28T10:10:14.767Z,1020.64
2023-03-28T10:11:14.789Z,1020.71
2023-03-28T10:12:14.812Z,1020.67
2023-03-28T10:13:14.847Z,1020.68
2023-03-28T10:14:14.858Z,1020.65
2023-03-28T10:15:14.883Z,1020.65
2023-03-28T10:16:14.928Z,1020.63
2023-03-28T10:17:14.924Z,1020.69
2023-03-28T10:18:15.013Z,1020.63
2023-03-28T10:19:14.965Z,1020.62
2023-03-28T10:20:14.992Z,1020.66
2023-03-28T10:21:15.011Z,1020.69
2023-03-28T10:22:15.031Z,1020.62
2023-03-28T10:23:15.058Z,1020.63
2023-03-28T10:24:15.078Z,1020.59
2023-03-28T10:25:15.102Z,1020.63
2023-03-28T10:26:15.126Z,1020.62
2023-03-28T10:27:15.143Z,1020.60
2023-03-28T10:28:15.170Z,1020.61
2023-03-28T10:29:15.188Z,1020.61
2023-03-28T10:30:15.318Z,1020.60
2023-03-28T10:31:15.307Z,1020.59
2023-03-28T10:32:15.259Z,1020.61
2023-03-28T10:33:15.282Z,1020.66
2023-03-28T10:34:15.301Z,1020.67
2023-03-28T10:35:15.322Z,1020.60
2023-03-28T10:36:15.360Z,1020.59
2023-03-28T10:37:15.371Z,1020.59
2023-03-28T10:38:15.388Z,1020.57
2023-03-28T10:39:15.412Z,1020.53
2023-03-28T10:40:15.497Z,1020.55
2023-03-28T10:41:15.454Z,1020.52
2023-03-28T10:42:15.486Z,1020.52
2023-03-28T10:43:15.513Z,1020.52
2023-03-28T10:44:15.523Z,1020.50
2023-03-28T10:45:15.545Z,1020.45
2023-03-28T10:46:15.639Z,1020.46
2023-03-28T10:47:15.590Z,1020.45
2023-03-28T10:48:15.620Z,1020.47
2023-03-28T10:49:15.668Z,1020.47
2023-03-28T10:50:15.659Z,1020.46
2023-03-28T10:51:15.679Z,1020.47
2023-03-28T10:52:15.710Z,1020.51
2023-03-28T10:53:15.722Z,1020.51
2023-03-28T10:54:15.766Z,1020.53
2023-03-28T10:55:15.783Z,1020.48
2023-03-28T10:56:15.800Z,1020.49
2023-03-28T10:57:15.859Z,1020.49
2023-03-28T10:58:15.834Z,1020.48
2023-03-28T10:59:15.859Z,1020.46
2023-03-28T11:00:15.882Z,1020.49
2023-03-28T11:01:15.898Z,1020.46
2023-03-28T11:02:16.014Z,1020.43
2023-03-28T11:03:16.055Z,1020.42
2023-03-28T11:04:15.983Z,1020.41
2023-03-28T11:05:15.993Z,1020.42
2023-03-28T11:06:16.021Z,1020.37
2023-03-28T11:07:16.041Z,1020.36
2023-03-28T11:08:16.061Z,1020.38
2023-03-28T11:09:16.088Z,1020.32
2023-03-28T11:10:16.120Z,1020.38
2023-03-28T11:11:16.130Z,1020.40
2023-03-28T11:12:26.488Z,1020.39
2023-03-28T11:13:16.176Z,1020.37
2023-03-28T11:14:16.206Z,1020.37
2023-03-28T11:15:16.224Z,1020.36
2023-03-28T11:16:16.305Z,1020.31
2023-03-28T11:17:16.267Z,1020.28
2023-03-28T11:18:16.291Z,1020.31
2023-03-28T11:19:16.312Z,1020.29
2023-03-28T11:20:16.349Z,1020.29
2023-03-28T11:21:16.356Z,1020.27
2023-03-28T11:22:16.382Z,1020.29
2023-03-28T11:23:16.419Z,1020.31
2023-03-28T11:24:16.442Z,1020.31
2023-03-28T11:25:16.459Z,1020.30
2023-03-28T11:26:16.477Z,1020.24
2023-03-28T11:27:16.719Z,1020.24
2023-03-28T11:28:16.520Z,1020.24
2023-03-28T11:29:16.659Z,1020.25
2023-03-28T11:30:16.638Z,1020.17
2023-03-28T11:31:16.589Z,1020.21
2023-03-28T11:32:16.618Z,1020.18
2023-03-28T11:33:16.645Z,1020.12
2023-03-28T11:34:16.661Z,1020.14
2023-03-28T11:35:16.685Z,1020.10
2023-03-28T11:36:16.713Z,1020.11
2023-03-28T11:37:16.724Z,1020.09
2023-03-28T11:38:16.750Z,1020.07
2023-03-28T11:39:16.783Z,1020.09
2023-03-28T11:40:16.793Z,1020.06
2023-03-28T11:41:16.820Z,1020.07
2023-03-28T11:42:16.844Z,1020.09
2023-03-28T11:43:16.862Z,1020.12
2023-03-28T11:44:16.886Z,1020.07
2023-03-28T11:45:16.909Z,1020.11
2023-03-28T11:46:16.951Z,1020.02
2023-03-28T11:47:16.989Z,1019.99
2023-03-28T11:48:16.978Z,1019.97
2023-03-28T11:49:17.016Z,1019.96
2023-03-28T11:50:17.042Z,1019.96
2023-03-28T11:51:17.050Z,1019.93
2023-03-28T11:52:17.071Z,1019.89
2023-03-28T11:53:17.094Z,1019.90
2023-03-28T11:54:17.118Z,1019.85
2023-03-28T11:55:17.142Z,1019.89
2023-03-28T11:56:17.168Z,1019.86
2023-03-28T11:57:17.229Z,1019.87
2023-03-28T11:58:17.218Z,1019.86
2023-03-28T11:59:17.250Z,1019.80
2023-03-28T12:00:26.805Z,1019.76
2023-03-28T12:01:17.316Z,1019.75
2023-03-28T12:02:17.357Z,1019.77
2023-03-28T12:03:17.418Z,1019.75
2023-03-28T12:04:17.383Z,1019.73
2023-03-28T12:05:17.374Z,1019.68